MGX831 EKCH-LYPG
Flight info
| Callsign | MGX831 |
|---|---|
| Flight time | 2h 3m |
| Altitude | 37000 |
| Route | SALLO M44 KOGIM M725 HDO DCT ODLIV DCT BODAL DCT NAVTI DCT ABETI DCT OSDUK DCT BABOL DCT MOJ |
| Aircraft | A320/M-SDE3FGHIRWY/LB1 |
Departure
| Time | 2026-05-08 20:32 |
|---|---|
| Airport | Copenhagen Kastrup Airport (EKCH) |
Arrival
| Time | 2026-05-08 22:36 |
|---|---|
| Airport | Podgorica Airport / Podgorica Golubovci Airbase (LYPG) |
| Time | Latitude | Longitude | Altitude | Speed | Heading |
|---|---|---|---|---|---|
| 2026-05-08 20:11 | 55.62721 | 12.64094 | 24 ft | 0 kts | 32° |
| 2026-05-08 20:22 | 55.62720 | 12.64093 | 24 ft | 2 kts | 32° |
| 2026-05-08 20:23 | 55.62702 | 12.64070 | 26 ft | 2 kts | 38° |
| 2026-05-08 20:23 | 55.62689 | 12.64052 | 27 ft | 2 kts | 46° |
| 2026-05-08 20:23 | 55.62679 | 12.64029 | 24 ft | 2 kts | 68° |
| 2026-05-08 20:23 | 55.62676 | 12.64001 | 26 ft | 2 kts | 115° |
| 2026-05-08 20:24 | 55.62681 | 12.63982 | 24 ft | 1 kts | 124° |
| 2026-05-08 20:24 | 55.62682 | 12.63981 | 24 ft | 0 kts | 124° |
| 2026-05-08 20:25 | 55.62655 | 12.64054 | 24 ft | 17 kts | 123° |
| 2026-05-08 20:26 | 55.62611 | 12.64176 | 24 ft | 19 kts | 122° |
| 2026-05-08 20:26 | 55.62533 | 12.64380 | 24 ft | 21 kts | 123° |
| 2026-05-08 20:26 | 55.62468 | 12.64485 | 24 ft | 13 kts | 179° |
| 2026-05-08 20:26 | 55.62362 | 12.64435 | 34 ft | 17 kts | 196° |
| 2026-05-08 20:27 | 55.62237 | 12.64380 | 22 ft | 19 kts | 178° |
| 2026-05-08 20:27 | 55.62156 | 12.64423 | 22 ft | 13 kts | 168° |
| 2026-05-08 20:27 | 55.62062 | 12.64454 | 24 ft | 15 kts | 169° |
| 2026-05-08 20:27 | 55.61951 | 12.64491 | 24 ft | 17 kts | 169° |
| 2026-05-08 20:28 | 55.61823 | 12.64537 | 26 ft | 20 kts | 170° |
| 2026-05-08 20:28 | 55.61700 | 12.64571 | 24 ft | 16 kts | 181° |
| 2026-05-08 20:28 | 55.61594 | 12.64471 | 24 ft | 18 kts | 212° |
| 2026-05-08 20:28 | 55.61480 | 12.64338 | 26 ft | 21 kts | 213° |
| 2026-05-08 20:29 | 55.61351 | 12.64192 | 24 ft | 23 kts | 213° |
| 2026-05-08 20:29 | 55.61207 | 12.64026 | 24 ft | 26 kts | 213° |
| 2026-05-08 20:29 | 55.61050 | 12.63847 | 24 ft | 28 kts | 214° |
| 2026-05-08 20:29 | 55.60902 | 12.63676 | 26 ft | 18 kts | 212° |
| 2026-05-08 20:30 | 55.60792 | 12.63552 | 25 ft | 20 kts | 213° |
| 2026-05-08 20:30 | 55.60669 | 12.63405 | 24 ft | 23 kts | 216° |
| 2026-05-08 20:30 | 55.60547 | 12.63225 | 24 ft | 19 kts | 215° |
| 2026-05-08 20:30 | 55.60463 | 12.63281 | 24 ft | 1 kts | 132° |
| 2026-05-08 20:31 | 55.60463 | 12.63282 | 24 ft | 0 kts | 132° |
| 2026-05-08 20:31 | 55.60439 | 12.63327 | 24 ft | 8 kts | 132° |
| 2026-05-08 20:31 | 55.60410 | 12.63417 | 25 ft | 10 kts | 92° |
| 2026-05-08 20:31 | 55.60461 | 12.63535 | 24 ft | 18 kts | 41° |
| 2026-05-08 20:32 | 55.60692 | 12.63894 | 26 ft | 84 kts | 41° |
| 2026-05-08 20:32 | 55.61337 | 12.64888 | 27 ft | 157 kts | 41° |
| 2026-05-08 20:32 | 55.62252 | 12.66339 | 335 ft | 197 kts | 45° |
| 2026-05-08 20:32 | 55.63340 | 12.68062 | 1143 ft | 222 kts | 45° |
| 2026-05-08 20:33 | 55.64554 | 12.69953 | 2101 ft | 239 kts | 45° |
| 2026-05-08 20:33 | 55.65832 | 12.71910 | 3305 ft | 247 kts | 44° |
| 2026-05-08 20:33 | 55.67159 | 12.73899 | 4486 ft | 253 kts | 45° |
| 2026-05-08 20:33 | 55.68217 | 12.76384 | 5614 ft | 256 kts | 68° |
| 2026-05-08 20:34 | 55.68549 | 12.79485 | 6697 ft | 260 kts | 94° |
| 2026-05-08 20:34 | 55.68032 | 12.82573 | 7739 ft | 266 kts | 121° |
| 2026-05-08 20:34 | 55.64988 | 12.86356 | 9894 ft | 279 kts | 156° |
| 2026-05-08 20:35 | 55.63196 | 12.87647 | 10746 ft | 293 kts | 156° |
| 2026-05-08 20:35 | 55.61189 | 12.89083 | 11242 ft | 318 kts | 156° |
| 2026-05-08 20:35 | 55.59064 | 12.90608 | 11684 ft | 342 kts | 156° |
| 2026-05-08 20:35 | 55.56806 | 12.92233 | 12414 ft | 355 kts | 156° |
| 2026-05-08 20:36 | 55.54495 | 12.93899 | 13360 ft | 362 kts | 156° |
| 2026-05-08 20:36 | 55.52139 | 12.95603 | 14304 ft | 369 kts | 156° |
| 2026-05-08 20:36 | 55.49744 | 12.97332 | 15186 ft | 375 kts | 157° |
| 2026-05-08 20:36 | 55.47335 | 12.99069 | 16053 ft | 381 kts | 157° |
| 2026-05-08 20:37 | 55.44863 | 13.00845 | 16964 ft | 387 kts | 158° |
| 2026-05-08 20:37 | 55.42353 | 13.02647 | 17875 ft | 392 kts | 158° |
| 2026-05-08 20:37 | 55.39798 | 13.04484 | 18755 ft | 399 kts | 158° |
| 2026-05-08 20:37 | 55.37204 | 13.06347 | 19514 ft | 405 kts | 158° |
| 2026-05-08 20:38 | 55.34579 | 13.08227 | 20358 ft | 409 kts | 158° |
| 2026-05-08 20:38 | 55.31934 | 13.10120 | 21162 ft | 414 kts | 158° |
| 2026-05-08 20:38 | 55.29246 | 13.12043 | 21934 ft | 419 kts | 159° |
| 2026-05-08 20:38 | 55.26526 | 13.13987 | 22704 ft | 424 kts | 159° |
| 2026-05-08 20:39 | 55.23775 | 13.15951 | 23447 ft | 429 kts | 159° |
| 2026-05-08 20:39 | 55.20994 | 13.17934 | 24084 ft | 433 kts | 159° |
| 2026-05-08 20:39 | 55.18192 | 13.19923 | 24466 ft | 436 kts | 159° |
| 2026-05-08 20:39 | 55.15369 | 13.21919 | 24825 ft | 439 kts | 159° |
| 2026-05-08 20:40 | 55.12533 | 13.23926 | 25181 ft | 440 kts | 159° |
| 2026-05-08 20:40 | 55.09723 | 13.25916 | 25532 ft | 442 kts | 159° |
| 2026-05-08 20:40 | 55.06828 | 13.27963 | 25885 ft | 444 kts | 159° |
| 2026-05-08 20:40 | 55.03956 | 13.29991 | 26233 ft | 446 kts | 159° |
| 2026-05-08 20:41 | 55.01069 | 13.32028 | 26578 ft | 448 kts | 159° |
| 2026-05-08 20:41 | 54.98206 | 13.34038 | 26914 ft | 451 kts | 159° |
| 2026-05-08 20:41 | 54.95290 | 13.36077 | 27249 ft | 452 kts | 159° |
| 2026-05-08 20:41 | 54.92362 | 13.38124 | 27582 ft | 454 kts | 159° |
| 2026-05-08 20:42 | 54.89416 | 13.40180 | 27907 ft | 456 kts | 159° |
| 2026-05-08 20:42 | 54.86472 | 13.42234 | 28337 ft | 456 kts | 159° |
| 2026-05-08 20:42 | 54.83538 | 13.44281 | 28822 ft | 454 kts | 159° |
| 2026-05-08 20:42 | 54.80608 | 13.46307 | 29294 ft | 452 kts | 162° |
| 2026-05-08 20:43 | 54.77568 | 13.47532 | 29761 ft | 448 kts | 176° |
| 2026-05-08 20:43 | 54.74463 | 13.47829 | 30232 ft | 446 kts | 179° |
| 2026-05-08 20:43 | 54.71365 | 13.48070 | 30646 ft | 445 kts | 179° |
| 2026-05-08 20:43 | 54.68271 | 13.48297 | 31041 ft | 445 kts | 179° |
| 2026-05-08 20:44 | 54.65181 | 13.48515 | 31430 ft | 444 kts | 180° |
| 2026-05-08 20:44 | 54.62093 | 13.48735 | 31817 ft | 444 kts | 180° |
| 2026-05-08 20:44 | 54.59008 | 13.48961 | 32222 ft | 444 kts | 180° |
| 2026-05-08 20:44 | 54.55922 | 13.49195 | 32617 ft | 443 kts | 180° |
| 2026-05-08 20:45 | 54.52840 | 13.49436 | 33010 ft | 443 kts | 180° |
| 2026-05-08 20:45 | 54.50803 | 13.49624 | 33278 ft | 443 kts | 177° |
| 2026-05-08 20:45 | 54.46706 | 13.50599 | 33807 ft | 444 kts | 174° |
| 2026-05-08 20:45 | 54.43649 | 13.51376 | 34210 ft | 444 kts | 174° |
| 2026-05-08 20:46 | 54.40599 | 13.52148 | 34547 ft | 443 kts | 174° |
| 2026-05-08 20:46 | 54.37542 | 13.52920 | 34859 ft | 443 kts | 174° |
| 2026-05-08 20:46 | 54.34490 | 13.53686 | 35163 ft | 443 kts | 174° |
| 2026-05-08 20:46 | 54.31438 | 13.54452 | 35456 ft | 443 kts | 174° |
| 2026-05-08 20:47 | 54.28390 | 13.55229 | 35744 ft | 443 kts | 174° |
| 2026-05-08 20:47 | 54.25333 | 13.56029 | 36033 ft | 443 kts | 174° |
| 2026-05-08 20:47 | 54.22286 | 13.56837 | 36300 ft | 444 kts | 174° |
| 2026-05-08 20:47 | 54.19274 | 13.57640 | 36566 ft | 444 kts | 174° |
| 2026-05-08 20:48 | 54.16224 | 13.58449 | 36829 ft | 444 kts | 174° |
| 2026-05-08 20:48 | 54.13169 | 13.59249 | 37089 ft | 444 kts | 174° |
| 2026-05-08 20:48 | 54.10118 | 13.60034 | 37231 ft | 445 kts | 174° |
| 2026-05-08 20:49 | 54.03938 | 13.61614 | 37260 ft | 452 kts | 174° |
| 2026-05-08 20:49 | 53.97712 | 13.63205 | 37249 ft | 453 kts | 174° |
| 2026-05-08 20:50 | 53.91478 | 13.64834 | 37251 ft | 453 kts | 173° |
| 2026-05-08 20:50 | 53.85281 | 13.66914 | 37248 ft | 454 kts | 170° |
| 2026-05-08 20:51 | 53.79110 | 13.69303 | 37250 ft | 455 kts | 169° |
| 2026-05-08 20:51 | 53.72933 | 13.71631 | 37257 ft | 455 kts | 170° |
| 2026-05-08 20:52 | 53.66730 | 13.73850 | 37256 ft | 455 kts | 171° |
| 2026-05-08 20:52 | 53.60532 | 13.76032 | 37255 ft | 455 kts | 171° |
| 2026-05-08 20:53 | 53.54325 | 13.78228 | 37255 ft | 455 kts | 171° |
| 2026-05-08 20:53 | 53.48124 | 13.80432 | 37256 ft | 455 kts | 171° |
| 2026-05-08 20:54 | 53.41927 | 13.82633 | 37255 ft | 455 kts | 171° |
| 2026-05-08 20:54 | 53.35727 | 13.84825 | 37252 ft | 455 kts | 171° |
| 2026-05-08 20:55 | 53.29581 | 13.86987 | 37249 ft | 455 kts | 171° |
| 2026-05-08 20:55 | 53.23352 | 13.89174 | 37245 ft | 455 kts | 171° |
| 2026-05-08 20:56 | 53.17192 | 13.91227 | 37240 ft | 453 kts | 176° |
| 2026-05-08 20:56 | 53.10931 | 13.92446 | 37241 ft | 453 kts | 176° |
| 2026-05-08 20:57 | 53.04677 | 13.93651 | 37240 ft | 453 kts | 176° |
| 2026-05-08 20:57 | 52.98375 | 13.94859 | 37241 ft | 453 kts | 176° |
| 2026-05-08 20:58 | 52.92148 | 13.96043 | 37240 ft | 453 kts | 176° |
| 2026-05-08 20:58 | 52.85886 | 13.97298 | 37239 ft | 453 kts | 175° |
| 2026-05-08 20:59 | 52.79633 | 13.98662 | 37237 ft | 453 kts | 175° |
| 2026-05-08 20:59 | 52.73382 | 14.00031 | 37231 ft | 453 kts | 175° |
| 2026-05-08 21:00 | 52.67134 | 14.01369 | 37224 ft | 453 kts | 175° |
| 2026-05-08 21:00 | 52.60888 | 14.02682 | 37228 ft | 452 kts | 175° |
| 2026-05-08 21:01 | 52.54639 | 14.03988 | 37228 ft | 452 kts | 175° |
| 2026-05-08 21:01 | 52.48396 | 14.05305 | 37225 ft | 452 kts | 175° |
| 2026-05-08 21:02 | 52.42160 | 14.06618 | 37218 ft | 452 kts | 175° |
| 2026-05-08 21:02 | 52.35917 | 14.07921 | 37219 ft | 452 kts | 175° |
| 2026-05-08 21:03 | 52.29671 | 14.09223 | 37226 ft | 452 kts | 175° |
| 2026-05-08 21:03 | 52.23423 | 14.10535 | 37223 ft | 452 kts | 175° |
| 2026-05-08 21:04 | 52.17179 | 14.11847 | 37221 ft | 452 kts | 175° |
| 2026-05-08 21:04 | 52.10932 | 14.13131 | 37213 ft | 452 kts | 175° |
| 2026-05-08 21:05 | 52.04679 | 14.14407 | 37212 ft | 452 kts | 175° |
| 2026-05-08 21:05 | 51.98440 | 14.15691 | 37210 ft | 452 kts | 175° |
| 2026-05-08 21:06 | 51.92200 | 14.16968 | 37211 ft | 452 kts | 176° |
| 2026-05-08 21:06 | 51.85952 | 14.18233 | 37212 ft | 452 kts | 176° |
| 2026-05-08 21:07 | 51.79705 | 14.19502 | 37213 ft | 453 kts | 176° |
| 2026-05-08 21:07 | 51.73448 | 14.20781 | 37212 ft | 452 kts | 175° |
| 2026-05-08 21:08 | 51.67201 | 14.22046 | 37217 ft | 453 kts | 176° |
| 2026-05-08 21:08 | 51.62004 | 14.23090 | 37214 ft | 452 kts | 176° |
| 2026-05-08 21:09 | 51.55758 | 14.24355 | 37211 ft | 452 kts | 175° |
| 2026-05-08 21:09 | 51.49508 | 14.25611 | 37210 ft | 452 kts | 176° |
| 2026-05-08 21:10 | 51.43264 | 14.26858 | 37191 ft | 452 kts | 175° |
| 2026-05-08 21:10 | 51.37018 | 14.28111 | 37195 ft | 452 kts | 175° |
| 2026-05-08 21:11 | 51.30773 | 14.29364 | 37191 ft | 452 kts | 175° |
| 2026-05-08 21:11 | 51.24518 | 14.30620 | 37207 ft | 453 kts | 176° |
| 2026-05-08 21:12 | 51.18268 | 14.31856 | 37194 ft | 453 kts | 176° |
| 2026-05-08 21:12 | 51.12111 | 14.33629 | 37202 ft | 457 kts | 160° |
| 2026-05-08 21:13 | 51.06374 | 14.38252 | 37198 ft | 460 kts | 154° |
| 2026-05-08 21:13 | 51.00727 | 14.43035 | 37189 ft | 460 kts | 154° |
| 2026-05-08 21:14 | 50.95074 | 14.47810 | 37198 ft | 460 kts | 155° |
| 2026-05-08 21:14 | 50.89421 | 14.52552 | 37193 ft | 460 kts | 155° |
| 2026-05-08 21:15 | 50.83752 | 14.57280 | 37195 ft | 460 kts | 155° |
| 2026-05-08 21:15 | 50.78114 | 14.61976 | 37191 ft | 460 kts | 155° |
| 2026-05-08 21:16 | 50.72450 | 14.66677 | 37190 ft | 460 kts | 155° |
| 2026-05-08 21:16 | 50.66744 | 14.71400 | 37191 ft | 460 kts | 155° |
| 2026-05-08 21:17 | 50.61110 | 14.76055 | 37182 ft | 460 kts | 155° |
| 2026-05-08 21:17 | 50.55446 | 14.80724 | 37183 ft | 459 kts | 155° |
| 2026-05-08 21:18 | 50.49785 | 14.85385 | 37176 ft | 459 kts | 155° |
| 2026-05-08 21:18 | 50.44167 | 14.90203 | 37174 ft | 460 kts | 152° |
| 2026-05-08 21:19 | 50.38654 | 14.95350 | 37174 ft | 461 kts | 152° |
| 2026-05-08 21:19 | 50.33156 | 15.00522 | 37175 ft | 461 kts | 152° |
| 2026-05-08 21:20 | 50.27625 | 15.05610 | 37167 ft | 461 kts | 152° |
| 2026-05-08 21:20 | 50.22084 | 15.10636 | 37167 ft | 460 kts | 153° |
| 2026-05-08 21:21 | 50.16548 | 15.15657 | 37167 ft | 460 kts | 153° |
| 2026-05-08 21:21 | 50.11007 | 15.20683 | 37169 ft | 460 kts | 153° |
| 2026-05-08 21:22 | 50.05476 | 15.25698 | 37173 ft | 460 kts | 153° |
| 2026-05-08 21:22 | 49.99937 | 15.30692 | 37176 ft | 460 kts | 153° |
| 2026-05-08 21:23 | 49.94400 | 15.35669 | 37178 ft | 460 kts | 153° |
| 2026-05-08 21:23 | 49.88857 | 15.40632 | 37167 ft | 459 kts | 153° |
| 2026-05-08 21:24 | 49.83318 | 15.45583 | 37172 ft | 459 kts | 153° |
| 2026-05-08 21:24 | 49.77782 | 15.50514 | 37168 ft | 459 kts | 154° |
| 2026-05-08 21:25 | 49.72252 | 15.55444 | 37165 ft | 459 kts | 154° |
| 2026-05-08 21:25 | 49.66719 | 15.60367 | 37163 ft | 459 kts | 154° |
| 2026-05-08 21:26 | 49.61189 | 15.65262 | 37157 ft | 459 kts | 154° |
| 2026-05-08 21:26 | 49.55649 | 15.70139 | 37157 ft | 458 kts | 154° |
| 2026-05-08 21:27 | 49.50114 | 15.75009 | 37158 ft | 458 kts | 154° |
| 2026-05-08 21:27 | 49.44473 | 15.79463 | 37153 ft | 453 kts | 162° |
| 2026-05-08 21:28 | 49.38621 | 15.83053 | 37158 ft | 453 kts | 162° |
| 2026-05-08 21:28 | 49.32768 | 15.86649 | 37159 ft | 453 kts | 162° |
| 2026-05-08 21:29 | 49.26955 | 15.90224 | 37169 ft | 453 kts | 162° |
| 2026-05-08 21:29 | 49.21079 | 15.93830 | 37173 ft | 452 kts | 162° |
| 2026-05-08 21:30 | 49.15240 | 15.97382 | 37181 ft | 452 kts | 162° |
| 2026-05-08 21:30 | 49.09437 | 16.00901 | 37178 ft | 452 kts | 162° |
| 2026-05-08 21:31 | 49.03600 | 16.04437 | 37174 ft | 451 kts | 162° |
| 2026-05-08 21:31 | 48.97764 | 16.07973 | 37162 ft | 451 kts | 162° |
| 2026-05-08 21:32 | 48.91933 | 16.11496 | 37154 ft | 450 kts | 162° |
| 2026-05-08 21:32 | 48.86107 | 16.15008 | 37145 ft | 450 kts | 162° |
| 2026-05-08 21:33 | 48.80288 | 16.18504 | 37137 ft | 450 kts | 162° |
| 2026-05-08 21:33 | 48.74502 | 16.22127 | 37132 ft | 451 kts | 159° |
| 2026-05-08 21:34 | 48.68870 | 16.26358 | 37131 ft | 452 kts | 156° |
| 2026-05-08 21:34 | 48.63308 | 16.30779 | 37128 ft | 452 kts | 156° |
| 2026-05-08 21:35 | 48.57712 | 16.35083 | 37130 ft | 451 kts | 158° |
| 2026-05-08 21:35 | 48.52095 | 16.39283 | 37133 ft | 451 kts | 158° |
| 2026-05-08 21:36 | 48.46469 | 16.43459 | 37126 ft | 450 kts | 158° |
| 2026-05-08 21:36 | 48.40855 | 16.47634 | 37124 ft | 450 kts | 158° |
| 2026-05-08 21:37 | 48.35242 | 16.51814 | 37120 ft | 450 kts | 158° |
| 2026-05-08 21:37 | 48.29640 | 16.55974 | 37116 ft | 450 kts | 158° |
| 2026-05-08 21:38 | 48.24027 | 16.60134 | 37121 ft | 450 kts | 158° |
| 2026-05-08 21:38 | 48.18417 | 16.64287 | 37116 ft | 450 kts | 158° |
| 2026-05-08 21:39 | 48.12806 | 16.68429 | 37116 ft | 450 kts | 158° |
| 2026-05-08 21:39 | 48.07182 | 16.72561 | 37115 ft | 450 kts | 158° |
| 2026-05-08 21:40 | 48.01594 | 16.76661 | 37113 ft | 450 kts | 158° |
| 2026-05-08 21:40 | 47.95961 | 16.80793 | 37119 ft | 450 kts | 158° |
| 2026-05-08 21:41 | 47.87525 | 16.86962 | 37104 ft | 450 kts | 158° |
| 2026-05-08 21:41 | 47.81901 | 16.91048 | 37109 ft | 450 kts | 158° |
| 2026-05-08 21:42 | 47.76272 | 16.95131 | 37106 ft | 450 kts | 158° |
| 2026-05-08 21:42 | 47.70640 | 16.99190 | 37108 ft | 450 kts | 158° |
| 2026-05-08 21:43 | 47.64984 | 17.03161 | 37107 ft | 449 kts | 160° |
| 2026-05-08 21:43 | 47.59224 | 17.06716 | 37104 ft | 448 kts | 162° |
| 2026-05-08 21:44 | 47.53428 | 17.10128 | 37107 ft | 448 kts | 162° |
| 2026-05-08 21:44 | 47.47649 | 17.13603 | 37105 ft | 449 kts | 161° |
| 2026-05-08 21:45 | 47.41861 | 17.17130 | 37106 ft | 449 kts | 161° |
| 2026-05-08 21:45 | 47.36086 | 17.20658 | 37110 ft | 450 kts | 161° |
| 2026-05-08 21:46 | 47.30300 | 17.24185 | 37111 ft | 450 kts | 161° |
| 2026-05-08 21:46 | 47.24508 | 17.27695 | 37113 ft | 450 kts | 161° |
| 2026-05-08 21:47 | 47.18709 | 17.31196 | 37110 ft | 451 kts | 161° |
| 2026-05-08 21:47 | 47.12908 | 17.34699 | 37105 ft | 451 kts | 161° |
| 2026-05-08 21:48 | 47.07096 | 17.38204 | 37100 ft | 451 kts | 161° |
| 2026-05-08 21:48 | 47.01294 | 17.41691 | 37097 ft | 451 kts | 161° |
| 2026-05-08 21:49 | 46.96458 | 17.44581 | 37096 ft | 451 kts | 161° |
| 2026-05-08 21:49 | 46.89702 | 17.48606 | 37095 ft | 451 kts | 161° |
| 2026-05-08 21:50 | 46.84837 | 17.51496 | 37095 ft | 451 kts | 161° |
| 2026-05-08 21:50 | 46.79025 | 17.54953 | 37092 ft | 450 kts | 161° |
| 2026-05-08 21:51 | 46.73228 | 17.58409 | 37090 ft | 450 kts | 161° |
| 2026-05-08 21:51 | 46.67425 | 17.61847 | 37094 ft | 450 kts | 161° |
| 2026-05-08 21:52 | 46.61624 | 17.65259 | 37095 ft | 449 kts | 161° |
| 2026-05-08 21:52 | 46.55827 | 17.68668 | 37089 ft | 449 kts | 161° |
| 2026-05-08 21:53 | 46.50072 | 17.72062 | 37093 ft | 449 kts | 161° |
| 2026-05-08 21:53 | 46.44249 | 17.75487 | 37091 ft | 448 kts | 161° |
| 2026-05-08 21:54 | 46.38466 | 17.78866 | 37084 ft | 448 kts | 161° |
| 2026-05-08 21:54 | 46.32683 | 17.82238 | 37088 ft | 448 kts | 161° |
| 2026-05-08 21:55 | 46.26942 | 17.85576 | 37086 ft | 448 kts | 161° |
| 2026-05-08 21:56 | 46.18278 | 17.90615 | 37089 ft | 447 kts | 161° |
| 2026-05-08 21:56 | 46.12510 | 17.93952 | 37089 ft | 447 kts | 161° |
| 2026-05-08 21:57 | 46.06744 | 17.97285 | 37090 ft | 446 kts | 161° |
| 2026-05-08 21:57 | 46.00981 | 18.00612 | 37085 ft | 446 kts | 161° |
| 2026-05-08 21:58 | 45.95222 | 18.03925 | 37088 ft | 446 kts | 161° |
| 2026-05-08 21:58 | 45.89459 | 18.07232 | 37086 ft | 446 kts | 161° |
| 2026-05-08 21:59 | 45.83697 | 18.10531 | 37081 ft | 446 kts | 161° |
| 2026-05-08 21:59 | 45.77928 | 18.13813 | 37087 ft | 446 kts | 162° |
| 2026-05-08 22:00 | 45.72100 | 18.16805 | 37076 ft | 445 kts | 165° |
| 2026-05-08 22:00 | 45.66234 | 18.19602 | 37077 ft | 444 kts | 165° |
| 2026-05-08 22:01 | 45.60369 | 18.22408 | 37073 ft | 445 kts | 164° |
| 2026-05-08 22:01 | 45.54521 | 18.25273 | 37077 ft | 445 kts | 164° |
| 2026-05-08 22:02 | 45.48666 | 18.28167 | 37068 ft | 445 kts | 164° |
| 2026-05-08 22:02 | 45.42816 | 18.31038 | 37070 ft | 445 kts | 164° |
| 2026-05-08 22:03 | 45.36958 | 18.33896 | 37079 ft | 445 kts | 164° |
| 2026-05-08 22:03 | 45.31106 | 18.36741 | 37074 ft | 445 kts | 164° |
| 2026-05-08 22:04 | 45.25244 | 18.39592 | 37076 ft | 445 kts | 164° |
| 2026-05-08 22:04 | 45.19387 | 18.42438 | 37072 ft | 445 kts | 164° |
| 2026-05-08 22:05 | 45.13516 | 18.45284 | 37073 ft | 445 kts | 164° |
| 2026-05-08 22:05 | 45.07648 | 18.48112 | 37069 ft | 446 kts | 165° |
| 2026-05-08 22:06 | 45.01776 | 18.50927 | 37065 ft | 446 kts | 165° |
| 2026-05-08 22:06 | 44.95902 | 18.53759 | 37067 ft | 446 kts | 165° |
| 2026-05-08 22:07 | 44.90024 | 18.56578 | 37068 ft | 446 kts | 165° |
| 2026-05-08 22:07 | 44.84141 | 18.59394 | 37070 ft | 447 kts | 165° |
| 2026-05-08 22:08 | 44.78255 | 18.62208 | 37070 ft | 447 kts | 165° |
| 2026-05-08 22:08 | 44.72397 | 18.65187 | 37071 ft | 448 kts | 162° |
| 2026-05-08 22:09 | 44.66575 | 18.68376 | 37069 ft | 449 kts | 162° |
| 2026-05-08 22:09 | 44.60747 | 18.71571 | 37070 ft | 449 kts | 162° |
| 2026-05-08 22:10 | 44.54902 | 18.74704 | 37071 ft | 450 kts | 163° |
| 2026-05-08 22:10 | 44.49043 | 18.77805 | 37074 ft | 450 kts | 163° |
| 2026-05-08 22:11 | 44.43216 | 18.80881 | 37072 ft | 450 kts | 163° |
| 2026-05-08 22:11 | 44.37354 | 18.83978 | 37071 ft | 451 kts | 163° |
| 2026-05-08 22:12 | 44.31485 | 18.87071 | 37076 ft | 451 kts | 163° |
| 2026-05-08 22:12 | 44.25607 | 18.90167 | 37080 ft | 451 kts | 163° |
| 2026-05-08 22:13 | 44.19727 | 18.93253 | 37077 ft | 452 kts | 163° |
| 2026-05-08 22:13 | 44.13842 | 18.96333 | 37069 ft | 451 kts | 163° |
| 2026-05-08 22:14 | 44.07960 | 18.99418 | 37080 ft | 452 kts | 163° |
| 2026-05-08 22:14 | 44.02070 | 19.02507 | 37085 ft | 453 kts | 163° |
| 2026-05-08 22:15 | 43.96171 | 19.05567 | 37083 ft | 453 kts | 163° |
| 2026-05-08 22:15 | 43.90269 | 19.08624 | 37084 ft | 453 kts | 163° |
| 2026-05-08 22:16 | 43.84361 | 19.11697 | 37082 ft | 454 kts | 163° |
| 2026-05-08 22:16 | 43.78444 | 19.14764 | 37082 ft | 454 kts | 163° |
| 2026-05-08 22:17 | 43.72519 | 19.17835 | 36944 ft | 455 kts | 164° |
| 2026-05-08 22:17 | 43.69528 | 19.19376 | 35826 ft | 464 kts | 163° |
| 2026-05-08 22:17 | 43.66502 | 19.20928 | 35100 ft | 462 kts | 163° |
| 2026-05-08 22:17 | 43.63496 | 19.22468 | 34343 ft | 461 kts | 163° |
| 2026-05-08 22:18 | 43.60493 | 19.24011 | 33321 ft | 463 kts | 163° |
| 2026-05-08 22:18 | 43.57473 | 19.25563 | 32394 ft | 463 kts | 163° |
| 2026-05-08 22:18 | 43.54446 | 19.27117 | 31426 ft | 464 kts | 162° |
| 2026-05-08 22:18 | 43.51414 | 19.28675 | 30438 ft | 466 kts | 162° |
| 2026-05-08 22:19 | 43.48376 | 19.30239 | 29267 ft | 469 kts | 162° |
| 2026-05-08 22:19 | 43.45320 | 19.31808 | 28141 ft | 469 kts | 162° |
| 2026-05-08 22:19 | 43.42245 | 19.33377 | 26943 ft | 471 kts | 162° |
| 2026-05-08 22:19 | 43.39178 | 19.34937 | 25758 ft | 465 kts | 162° |
| 2026-05-08 22:20 | 43.36222 | 19.36443 | 25121 ft | 443 kts | 162° |
| 2026-05-08 22:20 | 43.33377 | 19.37895 | 24352 ft | 428 kts | 162° |
| 2026-05-08 22:20 | 43.30621 | 19.39298 | 23617 ft | 422 kts | 162° |
| 2026-05-08 22:20 | 43.27869 | 19.40690 | 22817 ft | 420 kts | 162° |
| 2026-05-08 22:21 | 43.25134 | 19.42073 | 22107 ft | 416 kts | 162° |
| 2026-05-08 22:21 | 43.22436 | 19.43435 | 21391 ft | 411 kts | 162° |
| 2026-05-08 22:21 | 43.19772 | 19.44784 | 20681 ft | 406 kts | 161° |
| 2026-05-08 22:21 | 43.17137 | 19.46120 | 19987 ft | 401 kts | 161° |
| 2026-05-08 22:22 | 43.14537 | 19.47442 | 19312 ft | 397 kts | 161° |
| 2026-05-08 22:22 | 43.11963 | 19.48750 | 18668 ft | 393 kts | 161° |
| 2026-05-08 22:22 | 43.09414 | 19.50038 | 17985 ft | 388 kts | 161° |
| 2026-05-08 22:22 | 43.06888 | 19.51309 | 17388 ft | 385 kts | 161° |
| 2026-05-08 22:23 | 43.04389 | 19.52569 | 16808 ft | 381 kts | 161° |
| 2026-05-08 22:23 | 43.01912 | 19.53815 | 16239 ft | 378 kts | 161° |
| 2026-05-08 22:23 | 42.99457 | 19.55042 | 15666 ft | 374 kts | 162° |
| 2026-05-08 22:23 | 42.96961 | 19.55911 | 15093 ft | 368 kts | 172° |
| 2026-05-08 22:24 | 42.94413 | 19.56126 | 14504 ft | 366 kts | 183° |
| 2026-05-08 22:24 | 42.91901 | 19.55701 | 13904 ft | 363 kts | 193° |
| 2026-05-08 22:24 | 42.89498 | 19.54671 | 13241 ft | 361 kts | 203° |
| 2026-05-08 22:24 | 42.87228 | 19.53350 | 12621 ft | 358 kts | 204° |
| 2026-05-08 22:25 | 42.84946 | 19.52026 | 11983 ft | 355 kts | 203° |
| 2026-05-08 22:25 | 42.82677 | 19.50713 | 11347 ft | 354 kts | 203° |
| 2026-05-08 22:25 | 42.80430 | 19.49414 | 10989 ft | 342 kts | 203° |
| 2026-05-08 22:25 | 42.78335 | 19.48209 | 10858 ft | 313 kts | 203° |
| 2026-05-08 22:26 | 42.76404 | 19.47101 | 10637 ft | 292 kts | 203° |
| 2026-05-08 22:26 | 42.74568 | 19.46049 | 10332 ft | 282 kts | 203° |
| 2026-05-08 22:26 | 42.72756 | 19.45007 | 10092 ft | 283 kts | 203° |
| 2026-05-08 22:26 | 42.70945 | 19.43964 | 9930 ft | 282 kts | 202° |
| 2026-05-08 22:27 | 42.69139 | 19.42923 | 9797 ft | 282 kts | 203° |
| 2026-05-08 22:27 | 42.67339 | 19.41886 | 9656 ft | 281 kts | 203° |
| 2026-05-08 22:27 | 42.65542 | 19.40850 | 9522 ft | 280 kts | 202° |
| 2026-05-08 22:27 | 42.63760 | 19.39827 | 9388 ft | 270 kts | 202° |
| 2026-05-08 22:28 | 42.62078 | 19.38862 | 9250 ft | 258 kts | 202° |
| 2026-05-08 22:28 | 42.60428 | 19.37918 | 8943 ft | 256 kts | 202° |
| 2026-05-08 22:28 | 42.58816 | 19.37000 | 8555 ft | 253 kts | 202° |
| 2026-05-08 22:28 | 42.57206 | 19.36081 | 8256 ft | 247 kts | 203° |
| 2026-05-08 22:29 | 42.55632 | 19.35178 | 7860 ft | 245 kts | 203° |
| 2026-05-08 22:29 | 42.54071 | 19.34282 | 7500 ft | 242 kts | 203° |
| 2026-05-08 22:29 | 42.52477 | 19.33615 | 7114 ft | 238 kts | 189° |
| 2026-05-08 22:29 | 42.50835 | 19.33417 | 6747 ft | 237 kts | 185° |
| 2026-05-08 22:30 | 42.49195 | 19.33250 | 6404 ft | 236 kts | 185° |
| 2026-05-08 22:30 | 42.47558 | 19.33082 | 6036 ft | 235 kts | 185° |
| 2026-05-08 22:30 | 42.45931 | 19.32914 | 5690 ft | 234 kts | 185° |
| 2026-05-08 22:30 | 42.44307 | 19.32747 | 5335 ft | 234 kts | 185° |
| 2026-05-08 22:31 | 42.42688 | 19.32579 | 5002 ft | 233 kts | 185° |
| 2026-05-08 22:31 | 42.41070 | 19.32412 | 4644 ft | 232 kts | 185° |
| 2026-05-08 22:31 | 42.39463 | 19.32247 | 4302 ft | 232 kts | 185° |
| 2026-05-08 22:31 | 42.37859 | 19.32083 | 3960 ft | 231 kts | 184° |
| 2026-05-08 22:32 | 42.36302 | 19.31922 | 3842 ft | 216 kts | 185° |
| 2026-05-08 22:32 | 42.34820 | 19.31769 | 3775 ft | 213 kts | 184° |
| 2026-05-08 22:32 | 42.33823 | 19.31664 | 3716 ft | 212 kts | 184° |
| 2026-05-08 22:32 | 42.32349 | 19.31509 | 3410 ft | 211 kts | 184° |
| 2026-05-08 22:33 | 42.30886 | 19.31353 | 3099 ft | 208 kts | 186° |
| 2026-05-08 22:33 | 42.29548 | 19.30788 | 2808 ft | 198 kts | 211° |
| 2026-05-08 22:33 | 42.28595 | 19.29633 | 2523 ft | 182 kts | 234° |
| 2026-05-08 22:33 | 42.28079 | 19.28116 | 2152 ft | 175 kts | 261° |
| 2026-05-08 22:34 | 42.28187 | 19.26561 | 2012 ft | 158 kts | 292° |
| 2026-05-08 22:34 | 42.28776 | 19.25408 | 2016 ft | 146 kts | 319° |
| 2026-05-08 22:34 | 42.29610 | 19.24749 | 1823 ft | 137 kts | 344° |
| 2026-05-08 22:34 | 42.30543 | 19.24640 | 1443 ft | 135 kts | 6° |
| 2026-05-08 22:35 | 42.31505 | 19.24736 | 1013 ft | 143 kts | 6° |
| 2026-05-08 22:35 | 42.32523 | 19.24841 | 540 ft | 149 kts | 6° |
| 2026-05-08 22:35 | 42.33524 | 19.24947 | 356 ft | 142 kts | 5° |
| 2026-05-08 22:35 | 42.34492 | 19.25036 | 177 ft | 139 kts | 6° |
| 2026-05-08 22:36 | 42.35427 | 19.25136 | 111 ft | 124 kts | 5° |
| 2026-05-08 22:36 | 42.36027 | 19.25198 | 105 ft | 43 kts | 4° |
| 2026-05-08 22:36 | 42.36172 | 19.25213 | 106 ft | 17 kts | 4° |
| 2026-05-08 22:36 | 42.36297 | 19.25223 | 109 ft | 19 kts | 2° |
| 2026-05-08 22:37 | 42.36436 | 19.25239 | 112 ft | 22 kts | 5° |
| 2026-05-08 22:37 | 42.36590 | 19.25243 | 110 ft | 11 kts | 337° |
| 2026-05-08 22:37 | 42.36623 | 19.25139 | 111 ft | 14 kts | 276° |
| 2026-05-08 22:37 | 42.36631 | 19.24995 | 110 ft | 17 kts | 275° |
| 2026-05-08 22:38 | 42.36650 | 19.24842 | 106 ft | 11 kts | 308° |
| 2026-05-08 22:38 | 42.36732 | 19.24834 | 106 ft | 14 kts | 6° |
| 2026-05-08 22:38 | 42.36789 | 19.24817 | 106 ft | 3 kts | 265° |
| 2026-05-08 22:38 | 42.36791 | 19.24802 | 106 ft | 3 kts | 278° |
| 2026-05-08 22:39 | 42.36793 | 19.24768 | 106 ft | 0 kts | 274° |
| 2026-05-08 22:39 | 42.36796 | 19.24758 | 106 ft | 1 kts | 292° |
| 2026-05-08 22:39 | 42.36803 | 19.24751 | 105 ft | 0 kts | 329° |